sensor_id;sensor_type;location;lat;lon;timestamp;P1;durP1;ratioP1;P2;durP2;ratioP2
4674;SDS011;2351;50.812;12.872;2022-11-20T00:00:08;34.90;;;17.45;;
4674;SDS011;2351;50.812;12.872;2022-11-20T00:02:40;39.78;;;17.70;;
4674;SDS011;2351;50.812;12.872;2022-11-20T00:05:13;38.47;;;16.20;;
4674;SDS011;2351;50.812;12.872;2022-11-20T00:07:45;33.90;;;17.00;;
4674;SDS011;2351;50.812;12.872;2022-11-20T00:10:16;36.35;;;18.08;;
4674;SDS011;2351;50.812;12.872;2022-11-20T00:12:48;40.05;;;18.42;;
4674;SDS011;2351;50.812;12.872;2022-11-20T00:15:20;43.20;;;19.92;;
4674;SDS011;2351;50.812;12.872;2022-11-20T00:17:52;36.15;;;18.15;;
4674;SDS011;2351;50.812;12.872;2022-11-20T00:20:25;35.90;;;16.38;;
4674;SDS011;2351;50.812;12.872;2022-11-20T00:22:57;36.35;;;15.52;;
4674;SDS011;2351;50.812;12.872;2022-11-20T00:25:29;30.15;;;15.02;;
4674;SDS011;2351;50.812;12.872;2022-11-20T00:28:00;30.25;;;15.05;;
4674;SDS011;2351;50.812;12.872;2022-11-20T00:30:32;29.13;;;14.93;;
4674;SDS011;2351;50.812;12.872;2022-11-20T00:33:04;29.70;;;12.43;;
4674;SDS011;2351;50.812;12.872;2022-11-20T00:35:37;28.13;;;14.57;;
4674;SDS011;2351;50.812;12.872;2022-11-20T00:38:08;34.42;;;15.75;;
4674;SDS011;2351;50.812;12.872;2022-11-20T00:40:40;38.42;;;16.30;;
4674;SDS011;2351;50.812;12.872;2022-11-20T00:43:12;30.15;;;14.70;;
4674;SDS011;2351;50.812;12.872;2022-11-20T00:45:43;34.30;;;14.35;;
4674;SDS011;2351;50.812;12.872;2022-11-20T00:48:15;37.20;;;16.35;;
4674;SDS011;2351;50.812;12.872;2022-11-20T00:50:48;27.42;;;12.30;;
4674;SDS011;2351;50.812;12.872;2022-11-20T00:53:20;31.67;;;13.77;;
4674;SDS011;2351;50.812;12.872;2022-11-20T00:55:53;24.80;;;13.32;;
4674;SDS011;2351;50.812;12.872;2022-11-20T00:58:28;26.95;;;12.70;;
4674;SDS011;2351;50.812;12.872;2022-11-20T01:01:02;35.92;;;15.43;;
4674;SDS011;2351;50.812;12.872;2022-11-20T01:03:35;33.05;;;14.65;;
4674;SDS011;2351;50.812;12.872;2022-11-20T01:06:11;31.88;;;13.48;;
4674;SDS011;2351;50.812;12.872;2022-11-20T01:08:44;30.23;;;14.95;;
4674;SDS011;2351;50.812;12.872;2022-11-20T01:11:17;26.33;;;13.13;;
4674;SDS011;2351;50.812;12.872;2022-11-20T01:13:50;37.80;;;16.55;;
4674;SDS011;2351;50.812;12.872;2022-11-20T01:16:23;28.95;;;13.45;;
4674;SDS011;2351;50.812;12.872;2022-11-20T01:18:57;34.75;;;13.38;;
4674;SDS011;2351;50.812;12.872;2022-11-20T01:21:32;29.58;;;13.43;;
4674;SDS011;2351;50.812;12.872;2022-11-20T01:24:05;29.27;;;13.50;;
4674;SDS011;2351;50.812;12.872;2022-11-20T01:26:39;28.95;;;14.65;;
4674;SDS011;2351;50.812;12.872;2022-11-20T01:29:12;29.73;;;13.73;;
4674;SDS011;2351;50.812;12.872;2022-11-20T01:31:45;27.92;;;12.45;;
4674;SDS011;2351;50.812;12.872;2022-11-20T01:34:18;23.20;;;10.05;;
4674;SDS011;2351;50.812;12.872;2022-11-20T01:36:52;26.63;;;12.70;;
4674;SDS011;2351;50.812;12.872;2022-11-20T01:39:24;21.80;;;10.38;;
4674;SDS011;2351;50.812;12.872;2022-11-20T01:41:57;25.27;;;11.73;;
4674;SDS011;2351;50.812;12.872;2022-11-20T01:44:49;23.05;;;11.50;;
4674;SDS011;2351;50.812;12.872;2022-11-20T01:47:27;23.33;;;11.18;;
4674;SDS011;2351;50.812;12.872;2022-11-20T01:50:09;28.48;;;12.05;;
4674;SDS011;2351;50.812;12.872;2022-11-20T01:52:47;21.00;;;10.32;;
4674;SDS011;2351;50.812;12.872;2022-11-20T01:55:22;26.02;;;11.52;;
4674;SDS011;2351;50.812;12.872;2022-11-20T01:57:57;27.15;;;12.90;;
4674;SDS011;2351;50.812;12.872;2022-11-20T02:00:30;26.30;;;12.45;;
4674;SDS011;2351;50.812;12.872;2022-11-20T02:03:03;24.10;;;11.52;;
4674;SDS011;2351;50.812;12.872;2022-11-20T02:05:38;24.17;;;11.38;;
4674;SDS011;2351;50.812;12.872;2022-11-20T02:08:17;23.35;;;11.23;;
4674;SDS011;2351;50.812;12.872;2022-11-20T02:10:50;26.33;;;12.35;;
4674;SDS011;2351;50.812;12.872;2022-11-20T02:13:22;21.42;;;9.70;;
4674;SDS011;2351;50.812;12.872;2022-11-20T02:16:15;23.10;;;10.88;;
4674;SDS011;2351;50.812;12.872;2022-11-20T02:18:50;22.15;;;12.45;;
4674;SDS011;2351;50.812;12.872;2022-11-20T02:21:27;28.10;;;12.43;;
4674;SDS011;2351;50.812;12.872;2022-11-20T02:24:06;23.58;;;10.88;;
4674;SDS011;2351;50.812;12.872;2022-11-20T02:26:45;31.98;;;12.75;;
4674;SDS011;2351;50.812;12.872;2022-11-20T02:29:23;36.97;;;13.18;;
4674;SDS011;2351;50.812;12.872;2022-11-20T02:31:57;26.95;;;11.27;;
4674;SDS011;2351;50.812;12.872;2022-11-20T02:34:32;25.25;;;12.18;;
4674;SDS011;2351;50.812;12.872;2022-11-20T02:37:03;32.75;;;12.95;;
4674;SDS011;2351;50.812;12.872;2022-11-20T02:39:36;22.13;;;11.00;;
4674;SDS011;2351;50.812;12.872;2022-11-20T02:42:08;23.17;;;11.27;;
4674;SDS011;2351;50.812;12.872;2022-11-20T02:44:40;25.17;;;10.82;;
4674;SDS011;2351;50.812;12.872;2022-11-20T02:47:12;31.02;;;12.60;;
4674;SDS011;2351;50.812;12.872;2022-11-20T02:49:43;27.35;;;13.23;;
4674;SDS011;2351;50.812;12.872;2022-11-20T02:52:15;23.27;;;12.02;;
4674;SDS011;2351;50.812;12.872;2022-11-20T02:54:48;28.35;;;12.82;;
4674;SDS011;2351;50.812;12.872;2022-11-20T02:57:20;28.08;;;12.65;;
4674;SDS011;2351;50.812;12.872;2022-11-20T02:59:52;27.23;;;12.40;;
4674;SDS011;2351;50.812;12.872;2022-11-20T03:02:23;20.77;;;11.10;;
4674;SDS011;2351;50.812;12.872;2022-11-20T03:04:55;27.60;;;11.57;;
4674;SDS011;2351;50.812;12.872;2022-11-20T03:07:27;27.10;;;11.27;;
4674;SDS011;2351;50.812;12.872;2022-11-20T03:10:00;23.67;;;12.07;;
4674;SDS011;2351;50.812;12.872;2022-11-20T03:12:31;19.15;;;9.65;;
4674;SDS011;2351;50.812;12.872;2022-11-20T03:15:03;23.95;;;10.30;;
4674;SDS011;2351;50.812;12.872;2022-11-20T03:17:36;36.00;;;12.70;;
4674;SDS011;2351;50.812;12.872;2022-11-20T03:20:08;21.48;;;11.65;;
4674;SDS011;2351;50.812;12.872;2022-11-20T03:22:40;21.08;;;10.10;;
4674;SDS011;2351;50.812;12.872;2022-11-20T03:25:13;21.33;;;10.98;;
4674;SDS011;2351;50.812;12.872;2022-11-20T03:27:45;19.15;;;10.40;;
4674;SDS011;2351;50.812;12.872;2022-11-20T03:30:17;30.05;;;12.05;;
4674;SDS011;2351;50.812;12.872;2022-11-20T03:32:48;20.58;;;9.88;;
4674;SDS011;2351;50.812;12.872;2022-11-20T03:35:23;27.30;;;10.75;;
4674;SDS011;2351;50.812;12.872;2022-11-20T03:37:56;19.52;;;9.80;;
4674;SDS011;2351;50.812;12.872;2022-11-20T03:40:30;24.50;;;12.20;;
4674;SDS011;2351;50.812;12.872;2022-11-20T03:43:01;21.15;;;10.77;;
4674;SDS011;2351;50.812;12.872;2022-11-20T03:45:33;26.83;;;11.90;;
4674;SDS011;2351;50.812;12.872;2022-11-20T03:48:05;21.67;;;9.77;;
4674;SDS011;2351;50.812;12.872;2022-11-20T03:50:36;21.33;;;10.30;;
4674;SDS011;2351;50.812;12.872;2022-11-20T03:53:08;22.55;;;9.93;;
4674;SDS011;2351;50.812;12.872;2022-11-20T03:55:41;23.15;;;9.38;;
4674;SDS011;2351;50.812;12.872;2022-11-20T03:58:13;17.08;;;9.50;;
4674;SDS011;2351;50.812;12.872;2022-11-20T04:00:45;24.90;;;9.63;;
4674;SDS011;2351;50.812;12.872;2022-11-20T04:03:17;21.65;;;9.13;;
4674;SDS011;2351;50.812;12.872;2022-11-20T04:05:48;19.27;;;10.13;;
4674;SDS011;2351;50.812;12.872;2022-11-20T04:08:20;23.92;;;8.95;;
4674;SDS011;2351;50.812;12.872;2022-11-20T04:10:53;18.42;;;8.38;;
4674;SDS011;2351;50.812;12.872;2022-11-20T04:13:25;20.83;;;8.82;;
4674;SDS011;2351;50.812;12.872;2022-11-20T04:15:56;18.50;;;8.82;;
4674;SDS011;2351;50.812;12.872;2022-11-20T04:18:28;19.65;;;9.15;;
4674;SDS011;2351;50.812;12.872;2022-11-20T04:21:00;21.05;;;9.77;;
4674;SDS011;2351;50.812;12.872;2022-11-20T04:23:33;23.48;;;8.98;;
4674;SDS011;2351;50.812;12.872;2022-11-20T04:26:06;20.13;;;9.63;;
4674;SDS011;2351;50.812;12.872;2022-11-20T04:28:39;18.92;;;8.57;;
4674;SDS011;2351;50.812;12.872;2022-11-20T04:31:12;18.58;;;9.52;;
4674;SDS011;2351;50.812;12.872;2022-11-20T04:33:45;21.13;;;9.13;;
4674;SDS011;2351;50.812;12.872;2022-11-20T04:36:18;18.58;;;9.30;;
4674;SDS011;2351;50.812;12.872;2022-11-20T04:38:51;22.10;;;8.75;;
4674;SDS011;2351;50.812;12.872;2022-11-20T04:41:25;18.00;;;8.70;;
4674;SDS011;2351;50.812;12.872;2022-11-20T04:43:59;18.65;;;9.02;;
4674;SDS011;2351;50.812;12.872;2022-11-20T04:46:33;18.70;;;9.90;;
4674;SDS011;2351;50.812;12.872;2022-11-20T04:49:07;22.63;;;9.70;;
4674;SDS011;2351;50.812;12.872;2022-11-20T04:51:39;19.15;;;8.40;;
4674;SDS011;2351;50.812;12.872;2022-11-20T04:54:11;22.20;;;9.10;;
4674;SDS011;2351;50.812;12.872;2022-11-20T04:56:44;18.33;;;9.25;;
4674;SDS011;2351;50.812;12.872;2022-11-20T04:59:16;18.33;;;8.38;;
4674;SDS011;2351;50.812;12.872;2022-11-20T05:01:48;24.73;;;10.45;;
4674;SDS011;2351;50.812;12.872;2022-11-20T05:04:19;17.77;;;9.00;;
4674;SDS011;2351;50.812;12.872;2022-11-20T05:06:51;26.00;;;9.43;;
4674;SDS011;2351;50.812;12.872;2022-11-20T05:09:23;16.90;;;8.30;;
4674;SDS011;2351;50.812;12.872;2022-11-20T05:11:56;20.65;;;8.85;;
4674;SDS011;2351;50.812;12.872;2022-11-20T05:14:28;15.52;;;8.52;;
4674;SDS011;2351;50.812;12.872;2022-11-20T05:16:59;22.92;;;9.30;;
4674;SDS011;2351;50.812;12.872;2022-11-20T05:19:31;23.35;;;9.75;;
4674;SDS011;2351;50.812;12.872;2022-11-20T05:22:03;22.65;;;10.32;;
4674;SDS011;2351;50.812;12.872;2022-11-20T05:24:35;25.92;;;10.32;;
4674;SDS011;2351;50.812;12.872;2022-11-20T05:27:08;19.52;;;10.05;;
4674;SDS011;2351;50.812;12.872;2022-11-20T05:29:40;19.30;;;9.88;;
4674;SDS011;2351;50.812;12.872;2022-11-20T05:32:12;18.83;;;9.40;;
4674;SDS011;2351;50.812;12.872;2022-11-20T05:34:44;18.02;;;8.65;;
4674;SDS011;2351;50.812;12.872;2022-11-20T05:37:15;15.32;;;8.50;;
4674;SDS011;2351;50.812;12.872;2022-11-20T05:39:47;19.13;;;8.98;;
4674;SDS011;2351;50.812;12.872;2022-11-20T05:42:20;28.65;;;9.50;;
4674;SDS011;2351;50.812;12.872;2022-11-20T05:45:04;16.83;;;9.10;;
4674;SDS011;2351;50.812;12.872;2022-11-20T05:47:36;18.13;;;9.23;;
4674;SDS011;2351;50.812;12.872;2022-11-20T05:50:08;24.40;;;10.30;;
4674;SDS011;2351;50.812;12.872;2022-11-20T05:52:40;22.20;;;10.45;;
4674;SDS011;2351;50.812;12.872;2022-11-20T05:55:12;19.73;;;9.43;;
4674;SDS011;2351;50.812;12.872;2022-11-20T05:57:45;18.92;;;9.90;;
4674;SDS011;2351;50.812;12.872;2022-11-20T06:00:17;19.92;;;8.93;;
4674;SDS011;2351;50.812;12.872;2022-11-20T06:02:49;15.73;;;8.60;;
4674;SDS011;2351;50.812;12.872;2022-11-20T06:05:21;19.30;;;9.30;;
4674;SDS011;2351;50.812;12.872;2022-11-20T06:07:53;21.25;;;8.73;;
4674;SDS011;2351;50.812;12.872;2022-11-20T06:10:24;25.13;;;9.23;;
4674;SDS011;2351;50.812;12.872;2022-11-20T06:12:58;18.65;;;8.88;;
4674;SDS011;2351;50.812;12.872;2022-11-20T06:15:30;22.98;;;9.63;;
4674;SDS011;2351;50.812;12.872;2022-11-20T06:18:01;19.90;;;8.93;;
4674;SDS011;2351;50.812;12.872;2022-11-20T06:20:33;18.52;;;8.60;;
4674;SDS011;2351;50.812;12.872;2022-11-20T06:23:05;18.92;;;8.45;;
4674;SDS011;2351;50.812;12.872;2022-11-20T06:25:37;24.52;;;10.13;;
4674;SDS011;2351;50.812;12.872;2022-11-20T06:28:10;16.35;;;8.63;;
4674;SDS011;2351;50.812;12.872;2022-11-20T06:30:44;20.73;;;7.20;;
4674;SDS011;2351;50.812;12.872;2022-11-20T06:33:17;12.73;;;6.78;;
4674;SDS011;2351;50.812;12.872;2022-11-20T06:35:48;14.15;;;7.30;;
4674;SDS011;2351;50.812;12.872;2022-11-20T06:38:20;18.70;;;8.40;;
4674;SDS011;2351;50.812;12.872;2022-11-20T06:40:52;13.65;;;7.60;;
4674;SDS011;2351;50.812;12.872;2022-11-20T06:43:25;17.98;;;8.48;;
4674;SDS011;2351;50.812;12.872;2022-11-20T06:45:57;16.80;;;8.15;;
4674;SDS011;2351;50.812;12.872;2022-11-20T06:48:30;22.65;;;9.93;;
4674;SDS011;2351;50.812;12.872;2022-11-20T06:51:02;18.50;;;8.82;;
4674;SDS011;2351;50.812;12.872;2022-11-20T06:53:35;49.80;;;9.45;;
4674;SDS011;2351;50.812;12.872;2022-11-20T06:56:07;22.02;;;9.35;;
4674;SDS011;2351;50.812;12.872;2022-11-20T06:58:40;19.65;;;9.18;;
4674;SDS011;2351;50.812;12.872;2022-11-20T07:01:12;16.13;;;8.18;;
4674;SDS011;2351;50.812;12.872;2022-11-20T07:03:48;19.98;;;9.85;;
4674;SDS011;2351;50.812;12.872;2022-11-20T07:06:20;22.27;;;9.43;;
4674;SDS011;2351;50.812;12.872;2022-11-20T07:08:51;20.98;;;9.93;;
4674;SDS011;2351;50.812;12.872;2022-11-20T07:11:23;24.13;;;11.15;;
4674;SDS011;2351;50.812;12.872;2022-11-20T07:13:57;23.75;;;10.70;;
4674;SDS011;2351;50.812;12.872;2022-11-20T07:16:29;23.30;;;11.25;;
4674;SDS011;2351;50.812;12.872;2022-11-20T07:19:01;23.48;;;11.35;;
4674;SDS011;2351;50.812;12.872;2022-11-20T07:21:32;25.88;;;10.43;;
4674;SDS011;2351;50.812;12.872;2022-11-20T07:24:04;30.98;;;11.43;;
4674;SDS011;2351;50.812;12.872;2022-11-20T07:26:36;27.88;;;12.77;;
4674;SDS011;2351;50.812;12.872;2022-11-20T07:29:09;30.58;;;11.90;;
4674;SDS011;2351;50.812;12.872;2022-11-20T07:31:41;26.10;;;11.98;;
4674;SDS011;2351;50.812;12.872;2022-11-20T07:34:12;27.45;;;12.98;;
4674;SDS011;2351;50.812;12.872;2022-11-20T07:36:44;25.85;;;11.77;;
4674;SDS011;2351;50.812;12.872;2022-11-20T07:39:15;15.98;;;8.18;;
4674;SDS011;2351;50.812;12.872;2022-11-20T07:41:47;16.65;;;8.35;;
4674;SDS011;2351;50.812;12.872;2022-11-20T07:44:20;12.90;;;7.47;;
4674;SDS011;2351;50.812;12.872;2022-11-20T07:46:52;15.25;;;8.52;;
4674;SDS011;2351;50.812;12.872;2022-11-20T07:49:23;9.93;;;5.93;;
4674;SDS011;2351;50.812;12.872;2022-11-20T07:51:55;9.98;;;5.75;;
4674;SDS011;2351;50.812;12.872;2022-11-20T07:54:27;14.30;;;5.40;;
4674;SDS011;2351;50.812;12.872;2022-11-20T07:56:59;15.00;;;6.60;;
4674;SDS011;2351;50.812;12.872;2022-11-20T07:59:32;11.20;;;5.43;;
4674;SDS011;2351;50.812;12.872;2022-11-20T08:02:03;9.75;;;5.60;;
4674;SDS011;2351;50.812;12.872;2022-11-20T08:04:35;12.27;;;5.32;;
4674;SDS011;2351;50.812;12.872;2022-11-20T08:07:07;9.02;;;5.10;;
4674;SDS011;2351;50.812;12.872;2022-11-20T08:09:38;14.50;;;6.60;;
4674;SDS011;2351;50.812;12.872;2022-11-20T08:12:10;14.90;;;6.30;;
4674;SDS011;2351;50.812;12.872;2022-11-20T08:15:08;10.00;;;4.93;;
4674;SDS011;2351;50.812;12.872;2022-11-20T08:17:40;11.75;;;5.75;;
4674;SDS011;2351;50.812;12.872;2022-11-20T08:20:12;13.20;;;6.53;;
4674;SDS011;2351;50.812;12.872;2022-11-20T08:22:44;20.00;;;7.80;;
4674;SDS011;2351;50.812;12.872;2022-11-20T08:25:15;14.73;;;5.75;;
4674;SDS011;2351;50.812;12.872;2022-11-20T08:27:47;16.85;;;8.65;;
4674;SDS011;2351;50.812;12.872;2022-11-20T08:30:20;21.85;;;7.82;;
4674;SDS011;2351;50.812;12.872;2022-11-20T08:32:52;16.60;;;7.55;;
4674;SDS011;2351;50.812;12.872;2022-11-20T08:35:24;13.82;;;8.18;;
4674;SDS011;2351;50.812;12.872;2022-11-20T08:37:56;15.10;;;6.45;;
4674;SDS011;2351;50.812;12.872;2022-11-20T08:40:27;13.65;;;6.95;;
4674;SDS011;2351;50.812;12.872;2022-11-20T08:43:05;25.67;;;7.20;;
4674;SDS011;2351;50.812;12.872;2022-11-20T08:45:39;12.80;;;6.88;;
4674;SDS011;2351;50.812;12.872;2022-11-20T08:48:10;12.77;;;6.40;;
4674;SDS011;2351;50.812;12.872;2022-11-20T08:50:42;12.27;;;5.85;;
4674;SDS011;2351;50.812;12.872;2022-11-20T08:53:14;20.17;;;7.28;;
4674;SDS011;2351;50.812;12.872;2022-11-20T08:55:46;13.60;;;6.75;;
4674;SDS011;2351;50.812;12.872;2022-11-20T08:58:17;18.67;;;8.43;;
4674;SDS011;2351;50.812;12.872;2022-11-20T09:00:50;16.00;;;7.60;;
4674;SDS011;2351;50.812;12.872;2022-11-20T09:03:22;12.93;;;6.93;;
4674;SDS011;2351;50.812;12.872;2022-11-20T09:05:57;19.25;;;8.98;;
4674;SDS011;2351;50.812;12.872;2022-11-20T09:08:30;16.40;;;7.88;;
4674;SDS011;2351;50.812;12.872;2022-11-20T09:11:02;16.10;;;7.13;;
4674;SDS011;2351;50.812;12.872;2022-11-20T09:13:34;14.50;;;7.00;;
4674;SDS011;2351;50.812;12.872;2022-11-20T09:16:08;16.30;;;7.50;;
4674;SDS011;2351;50.812;12.872;2022-11-20T09:18:40;16.42;;;7.53;;
4674;SDS011;2351;50.812;12.872;2022-11-20T09:21:12;15.23;;;6.90;;
4674;SDS011;2351;50.812;12.872;2022-11-20T09:23:44;16.35;;;8.32;;
4674;SDS011;2351;50.812;12.872;2022-11-20T09:26:16;16.05;;;8.40;;
4674;SDS011;2351;50.812;12.872;2022-11-20T09:28:48;19.48;;;7.82;;
4674;SDS011;2351;50.812;12.872;2022-11-20T09:31:23;15.10;;;8.07;;
4674;SDS011;2351;50.812;12.872;2022-11-20T09:33:56;20.75;;;9.82;;
4674;SDS011;2351;50.812;12.872;2022-11-20T09:36:27;22.70;;;9.55;;
4674;SDS011;2351;50.812;12.872;2022-11-20T09:38:59;17.90;;;8.32;;
4674;SDS011;2351;50.812;12.872;2022-11-20T09:44:40;17.40;;;8.23;;
4674;SDS011;2351;50.812;12.872;2022-11-20T09:47:26;16.60;;;6.93;;
4674;SDS011;2351;50.812;12.872;2022-11-20T09:50:12;15.48;;;7.18;;
4674;SDS011;2351;50.812;12.872;2022-11-20T09:52:57;15.70;;;7.72;;
4674;SDS011;2351;50.812;12.872;2022-11-20T09:55:38;14.57;;;8.50;;
4674;SDS011;2351;50.812;12.872;2022-11-20T09:58:13;13.60;;;6.57;;
4674;SDS011;2351;50.812;12.872;2022-11-20T10:00:52;19.48;;;8.38;;
4674;SDS011;2351;50.812;12.872;2022-11-20T10:03:30;22.88;;;8.52;;
4674;SDS011;2351;50.812;12.872;2022-11-20T10:06:12;15.70;;;7.57;;
4674;SDS011;2351;50.812;12.872;2022-11-20T10:08:50;16.33;;;7.17;;
4674;SDS011;2351;50.812;12.872;2022-11-20T10:11:28;15.23;;;6.60;;
4674;SDS011;2351;50.812;12.872;2022-11-20T10:14:12;18.23;;;7.35;;
4674;SDS011;2351;50.812;12.872;2022-11-20T10:16:54;17.67;;;7.60;;
4674;SDS011;2351;50.812;12.872;2022-11-20T10:19:38;20.13;;;7.03;;
4674;SDS011;2351;50.812;12.872;2022-11-20T10:22:22;20.92;;;8.27;;
4674;SDS011;2351;50.812;12.872;2022-11-20T10:25:05;14.47;;;6.53;;
4674;SDS011;2351;50.812;12.872;2022-11-20T10:27:50;18.95;;;9.27;;
4674;SDS011;2351;50.812;12.872;2022-11-20T10:30:33;21.97;;;7.17;;
4674;SDS011;2351;50.812;12.872;2022-11-20T10:33:11;13.47;;;7.67;;
4674;SDS011;2351;50.812;12.872;2022-11-20T10:35:50;18.60;;;7.30;;
4674;SDS011;2351;50.812;12.872;2022-11-20T10:38:29;25.17;;;9.27;;
4674;SDS011;2351;50.812;12.872;2022-11-20T10:41:08;15.47;;;6.70;;
4674;SDS011;2351;50.812;12.872;2022-11-20T10:44:01;19.37;;;8.30;;
4674;SDS011;2351;50.812;12.872;2022-11-20T10:46:37;13.30;;;6.50;;
4674;SDS011;2351;50.812;12.872;2022-11-20T10:49:13;21.43;;;8.00;;
4674;SDS011;2351;50.812;12.872;2022-11-20T10:51:51;18.00;;;7.43;;
4674;SDS011;2351;50.812;12.872;2022-11-20T10:54:33;16.90;;;6.90;;
4674;SDS011;2351;50.812;12.872;2022-11-20T10:57:12;23.80;;;7.57;;
4674;SDS011;2351;50.812;12.872;2022-11-20T10:59:54;21.27;;;7.77;;
4674;SDS011;2351;50.812;12.872;2022-11-20T11:02:39;18.87;;;8.40;;
4674;SDS011;2351;50.812;12.872;2022-11-20T11:05:24;19.00;;;7.97;;
4674;SDS011;2351;50.812;12.872;2022-11-20T11:08:04;18.77;;;8.07;;
4674;SDS011;2351;50.812;12.872;2022-11-20T11:10:43;24.03;;;10.37;;
4674;SDS011;2351;50.812;12.872;2022-11-20T11:13:20;13.50;;;7.67;;
4674;SDS011;2351;50.812;12.872;2022-11-20T11:15:53;15.50;;;7.47;;
4674;SDS011;2351;50.812;12.872;2022-11-20T11:18:25;17.67;;;8.50;;
4674;SDS011;2351;50.812;12.872;2022-11-20T11:20:59;15.07;;;6.90;;
4674;SDS011;2351;50.812;12.872;2022-11-20T11:23:34;13.50;;;6.80;;
4674;SDS011;2351;50.812;12.872;2022-11-20T11:26:18;13.53;;;6.63;;
4674;SDS011;2351;50.812;12.872;2022-11-20T11:28:55;15.47;;;7.90;;
4674;SDS011;2351;50.812;12.872;2022-11-20T11:31:27;14.57;;;7.40;;
4674;SDS011;2351;50.812;12.872;2022-11-20T11:34:04;16.47;;;6.87;;
4674;SDS011;2351;50.812;12.872;2022-11-20T11:36:36;16.00;;;8.27;;
4674;SDS011;2351;50.812;12.872;2022-11-20T11:39:13;17.93;;;7.43;;
4674;SDS011;2351;50.812;12.872;2022-11-20T11:41:47;13.33;;;7.23;;
4674;SDS011;2351;50.812;12.872;2022-11-20T11:44:20;20.50;;;8.70;;
4674;SDS011;2351;50.812;12.872;2022-11-20T11:47:11;16.43;;;7.93;;
4674;SDS011;2351;50.812;12.872;2022-11-20T11:50:00;13.10;;;6.50;;
4674;SDS011;2351;50.812;12.872;2022-11-20T11:52:33;19.83;;;8.70;;
4674;SDS011;2351;50.812;12.872;2022-11-20T11:55:17;18.93;;;7.87;;
4674;SDS011;2351;50.812;12.872;2022-11-20T11:58:02;15.80;;;7.93;;
4674;SDS011;2351;50.812;12.872;2022-11-20T12:00:41;22.17;;;8.80;;
4674;SDS011;2351;50.812;12.872;2022-11-20T12:03:21;16.77;;;9.30;;
4674;SDS011;2351;50.812;12.872;2022-11-20T12:05:59;13.73;;;7.93;;
4674;SDS011;2351;50.812;12.872;2022-11-20T12:08:38;17.80;;;8.57;;
4674;SDS011;2351;50.812;12.872;2022-11-20T12:11:21;14.00;;;8.03;;
4674;SDS011;2351;50.812;12.872;2022-11-20T12:14:01;11.67;;;6.83;;
4674;SDS011;2351;50.812;12.872;2022-11-20T12:16:40;13.20;;;7.57;;
4674;SDS011;2351;50.812;12.872;2022-11-20T12:19:13;13.93;;;7.07;;
4674;SDS011;2351;50.812;12.872;2022-11-20T12:21:49;15.70;;;7.13;;
4674;SDS011;2351;50.812;12.872;2022-11-20T12:24:36;19.43;;;8.10;;
4674;SDS011;2351;50.812;12.872;2022-11-20T12:27:35;33.27;;;9.00;;
4674;SDS011;2351;50.812;12.872;2022-11-20T12:30:17;16.03;;;7.90;;
4674;SDS011;2351;50.812;12.872;2022-11-20T12:35:52;15.63;;;7.27;;
4674;SDS011;2351;50.812;12.872;2022-11-20T12:38:39;17.47;;;8.20;;
4674;SDS011;2351;50.812;12.872;2022-11-20T12:41:40;18.17;;;9.20;;
4674;SDS011;2351;50.812;12.872;2022-11-20T12:44:48;20.40;;;8.70;;
4674;SDS011;2351;50.812;12.872;2022-11-20T12:47:50;14.80;;;7.80;;
4674;SDS011;2351;50.812;12.872;2022-11-20T12:50:33;13.80;;;7.73;;
4674;SDS011;2351;50.812;12.872;2022-11-20T12:53:16;18.77;;;8.30;;
4674;SDS011;2351;50.812;12.872;2022-11-20T12:55:58;16.57;;;7.20;;
4674;SDS011;2351;50.812;12.872;2022-11-20T12:58:39;17.47;;;7.57;;
4674;SDS011;2351;50.812;12.872;2022-11-20T13:01:20;17.47;;;8.60;;
4674;SDS011;2351;50.812;12.872;2022-11-20T13:04:16;17.87;;;7.63;;
4674;SDS011;2351;50.812;12.872;2022-11-20T13:06:57;19.97;;;8.30;;
4674;SDS011;2351;50.812;12.872;2022-11-20T13:09:31;18.17;;;8.17;;
4674;SDS011;2351;50.812;12.872;2022-11-20T13:12:05;15.30;;;8.47;;
4674;SDS011;2351;50.812;12.872;2022-11-20T13:14:42;18.13;;;7.60;;
4674;SDS011;2351;50.812;12.872;2022-11-20T13:17:22;18.37;;;9.40;;
4674;SDS011;2351;50.812;12.872;2022-11-20T13:19:59;19.90;;;8.30;;
4674;SDS011;2351;50.812;12.872;2022-11-20T13:22:42;16.00;;;7.37;;
4674;SDS011;2351;50.812;12.872;2022-11-20T13:25:24;16.33;;;8.83;;
4674;SDS011;2351;50.812;12.872;2022-11-20T13:27:58;15.53;;;8.60;;
4674;SDS011;2351;50.812;12.872;2022-11-20T13:30:31;20.40;;;7.90;;
4674;SDS011;2351;50.812;12.872;2022-11-20T13:33:05;17.53;;;7.80;;
4674;SDS011;2351;50.812;12.872;2022-11-20T13:35:40;18.17;;;8.17;;
4674;SDS011;2351;50.812;12.872;2022-11-20T13:38:13;18.43;;;8.40;;
4674;SDS011;2351;50.812;12.872;2022-11-20T13:40:50;21.97;;;10.37;;
4674;SDS011;2351;50.812;12.872;2022-11-20T13:43:27;19.27;;;8.93;;
4674;SDS011;2351;50.812;12.872;2022-11-20T13:46:05;22.10;;;9.97;;
4674;SDS011;2351;50.812;12.872;2022-11-20T13:48:41;18.17;;;8.23;;
4674;SDS011;2351;50.812;12.872;2022-11-20T13:51:23;16.60;;;8.53;;
4674;SDS011;2351;50.812;12.872;2022-11-20T13:54:12;19.30;;;9.73;;
4674;SDS011;2351;50.812;12.872;2022-11-20T13:57:07;18.30;;;9.67;;
4674;SDS011;2351;50.812;12.872;2022-11-20T13:59:53;18.60;;;8.57;;
4674;SDS011;2351;50.812;12.872;2022-11-20T14:02:29;19.00;;;8.70;;
4674;SDS011;2351;50.812;12.872;2022-11-20T14:05:02;17.20;;;8.53;;
4674;SDS011;2351;50.812;12.872;2022-11-20T14:07:37;19.00;;;8.60;;
4674;SDS011;2351;50.812;12.872;2022-11-20T14:10:18;20.20;;;9.70;;
4674;SDS011;2351;50.812;12.872;2022-11-20T14:12:51;22.43;;;10.33;;
4674;SDS011;2351;50.812;12.872;2022-11-20T14:15:24;17.70;;;7.83;;
4674;SDS011;2351;50.812;12.872;2022-11-20T14:17:57;26.40;;;9.00;;
4674;SDS011;2351;50.812;12.872;2022-11-20T14:20:31;15.60;;;8.20;;
4674;SDS011;2351;50.812;12.872;2022-11-20T14:23:03;16.83;;;7.97;;
4674;SDS011;2351;50.812;12.872;2022-11-20T14:25:35;28.70;;;9.83;;
4674;SDS011;2351;50.812;12.872;2022-11-20T14:28:10;19.00;;;8.57;;
4674;SDS011;2351;50.812;12.872;2022-11-20T14:30:49;17.03;;;7.97;;
4674;SDS011;2351;50.812;12.872;2022-11-20T14:33:21;22.57;;;9.30;;
4674;SDS011;2351;50.812;12.872;2022-11-20T14:35:57;17.83;;;8.23;;
4674;SDS011;2351;50.812;12.872;2022-11-20T14:38:29;18.07;;;8.03;;
4674;SDS011;2351;50.812;12.872;2022-11-20T14:41:06;20.63;;;9.40;;
4674;SDS011;2351;50.812;12.872;2022-11-20T14:43:39;16.97;;;7.80;;
4674;SDS011;2351;50.812;12.872;2022-11-20T14:46:16;15.10;;;7.37;;
4674;SDS011;2351;50.812;12.872;2022-11-20T14:48:49;20.00;;;8.60;;
4674;SDS011;2351;50.812;12.872;2022-11-20T14:51:31;12.77;;;7.27;;
4674;SDS011;2351;50.812;12.872;2022-11-20T14:54:11;14.93;;;8.70;;
4674;SDS011;2351;50.812;12.872;2022-11-20T14:56:53;13.93;;;7.10;;
4674;SDS011;2351;50.812;12.872;2022-11-20T14:59:25;16.80;;;8.03;;
4674;SDS011;2351;50.812;12.872;2022-11-20T15:01:59;15.73;;;7.13;;
4674;SDS011;2351;50.812;12.872;2022-11-20T15:04:32;17.50;;;7.70;;
4674;SDS011;2351;50.812;12.872;2022-11-20T15:07:26;13.30;;;6.90;;
4674;SDS011;2351;50.812;12.872;2022-11-20T15:10:00;10.17;;;5.60;;
4674;SDS011;2351;50.812;12.872;2022-11-20T15:12:33;14.33;;;7.57;;
4674;SDS011;2351;50.812;12.872;2022-11-20T15:15:08;14.20;;;6.90;;
4674;SDS011;2351;50.812;12.872;2022-11-20T15:17:43;10.40;;;5.97;;
4674;SDS011;2351;50.812;12.872;2022-11-20T15:20:15;21.47;;;7.33;;
4674;SDS011;2351;50.812;12.872;2022-11-20T15:22:49;15.40;;;7.57;;
4674;SDS011;2351;50.812;12.872;2022-11-20T15:25:23;12.67;;;7.13;;
4674;SDS011;2351;50.812;12.872;2022-11-20T15:27:56;15.53;;;7.17;;
4674;SDS011;2351;50.812;12.872;2022-11-20T15:30:28;16.13;;;7.63;;
4674;SDS011;2351;50.812;12.872;2022-11-20T15:33:00;17.70;;;7.03;;
4674;SDS011;2351;50.812;12.872;2022-11-20T15:35:31;17.00;;;7.63;;